sensor_id;sensor_type;location;lat;lon;timestamp;pressure;altitude;pressure_sealevel;temperature;humidity
20624;BME280;10471;42.736;23.346;2022-12-18T00:01:40;96276.75;;;6.03;100.00
20624;BME280;10471;42.736;23.346;2022-12-18T00:04:11;96286.88;;;6.00;100.00
20624;BME280;10471;42.736;23.346;2022-12-18T00:06:40;96285.72;;;5.96;100.00
20624;BME280;10471;42.736;23.346;2022-12-18T00:09:05;96286.75;;;5.95;100.00
20624;BME280;10471;42.736;23.346;2022-12-18T00:11:31;96297.91;;;5.90;100.00
20624;BME280;10471;42.736;23.346;2022-12-18T00:13:58;96290.84;;;5.91;100.00
20624;BME280;10471;42.736;23.346;2022-12-18T00:16:26;96298.31;;;5.87;100.00
20624;BME280;10471;42.736;23.346;2022-12-18T00:18:54;96296.84;;;5.91;100.00
20624;BME280;10471;42.736;23.346;2022-12-18T00:21:20;96301.03;;;5.81;100.00
20624;BME280;10471;42.736;23.346;2022-12-18T00:23:47;96307.06;;;5.82;100.00
20624;BME280;10471;42.736;23.346;2022-12-18T00:26:32;96313.34;;;5.81;100.00
20624;BME280;10471;42.736;23.346;2022-12-18T00:29:03;96317.81;;;5.74;100.00
20624;BME280;10471;42.736;23.346;2022-12-18T00:31:29;96316.13;;;5.79;100.00
20624;BME280;10471;42.736;23.346;2022-12-18T00:33:55;96311.22;;;5.71;100.00
20624;BME280;10471;42.736;23.346;2022-12-18T00:36:23;96311.75;;;5.73;100.00
20624;BME280;10471;42.736;23.346;2022-12-18T00:38:49;96339.59;;;5.68;100.00
20624;BME280;10471;42.736;23.346;2022-12-18T00:41:16;96318.69;;;5.68;100.00
20624;BME280;10471;42.736;23.346;2022-12-18T00:44:03;96329.66;;;5.58;100.00
20624;BME280;10471;42.736;23.346;2022-12-18T00:46:28;96319.66;;;5.55;100.00
20624;BME280;10471;42.736;23.346;2022-12-18T00:48:54;96330.13;;;5.55;100.00
20624;BME280;10471;42.736;23.346;2022-12-18T00:51:19;96334.19;;;5.51;100.00
20624;BME280;10471;42.736;23.346;2022-12-18T00:53:45;96335.63;;;5.47;100.00
20624;BME280;10471;42.736;23.346;2022-12-18T00:56:10;96337.09;;;5.43;100.00
20624;BME280;10471;42.736;23.346;2022-12-18T00:58:35;96347.53;;;5.43;100.00
20624;BME280;10471;42.736;23.346;2022-12-18T01:01:01;96348.56;;;5.42;100.00
20624;BME280;10471;42.736;23.346;2022-12-18T01:03:26;96348.56;;;5.42;100.00
20624;BME280;10471;42.736;23.346;2022-12-18T01:05:51;96358.88;;;5.37;100.00
20624;BME280;10471;42.736;23.346;2022-12-18T01:08:17;96350.84;;;5.39;100.00
20624;BME280;10471;42.736;23.346;2022-12-18T01:10:42;96353.22;;;5.40;100.00
20624;BME280;10471;42.736;23.346;2022-12-18T01:13:07;96352.63;;;5.38;100.00
20624;BME280;10471;42.736;23.346;2022-12-18T01:15:33;96359.91;;;5.36;100.00
20624;BME280;10471;42.736;23.346;2022-12-18T01:17:58;96358.44;;;5.40;100.00
20624;BME280;10471;42.736;23.346;2022-12-18T01:20:24;96364.31;;;5.36;100.00
20624;BME280;10471;42.736;23.346;2022-12-18T01:22:49;96366.94;;;5.36;100.00
20624;BME280;10471;42.736;23.346;2022-12-18T01:25:15;96366.00;;;5.30;100.00
20624;BME280;10471;42.736;23.346;2022-12-18T01:27:40;96380.47;;;5.26;100.00
20624;BME280;10471;42.736;23.346;2022-12-18T01:30:06;96370.25;;;5.25;100.00
20624;BME280;10471;42.736;23.346;2022-12-18T01:32:32;96371.94;;;5.19;100.00
20624;BME280;10471;42.736;23.346;2022-12-18T01:34:57;96381.94;;;5.22;100.00
20624;BME280;10471;42.736;23.346;2022-12-18T01:37:23;96372.50;;;5.21;100.00
20624;BME280;10471;42.736;23.346;2022-12-18T01:39:48;96380.03;;;5.12;100.00
20624;BME280;10471;42.736;23.346;2022-12-18T01:42:15;96394.94;;;5.11;100.00
20624;BME280;10471;42.736;23.346;2022-12-18T01:44:54;96394.41;;;5.03;100.00
20624;BME280;10471;42.736;23.346;2022-12-18T01:50:00;96393.88;;;4.94;100.00
20624;BME280;10471;42.736;23.346;2022-12-18T01:52:29;96405.78;;;4.90;100.00
20624;BME280;10471;42.736;23.346;2022-12-18T01:54:56;96397.16;;;4.90;100.00
20624;BME280;10471;42.736;23.346;2022-12-18T01:57:23;96398.94;;;4.89;100.00
20624;BME280;10471;42.736;23.346;2022-12-18T01:59:51;96395.41;;;4.84;100.00
20624;BME280;10471;42.736;23.346;2022-12-18T02:02:18;96391.75;;;4.85;100.00
20624;BME280;10471;42.736;23.346;2022-12-18T02:04:44;96395.00;;;4.80;100.00
20624;BME280;10471;42.736;23.346;2022-12-18T02:07:28;96404.44;;;4.81;100.00
20624;BME280;10471;42.736;23.346;2022-12-18T02:10:06;96407.69;;;4.77;100.00
20624;BME280;10471;42.736;23.346;2022-12-18T02:12:52;96406.09;;;4.76;100.00
20624;BME280;10471;42.736;23.346;2022-12-18T02:15:34;96417.13;;;4.78;100.00
20624;BME280;10471;42.736;23.346;2022-12-18T02:18:08;96412.91;;;4.77;100.00
20624;BME280;10471;42.736;23.346;2022-12-18T02:20:45;96423.72;;;4.80;100.00
20624;BME280;10471;42.736;23.346;2022-12-18T02:23:50;96421.75;;;4.76;100.00
20624;BME280;10471;42.736;23.346;2022-12-18T02:28:58;96431.81;;;4.72;100.00
20624;BME280;10471;42.736;23.346;2022-12-18T02:31:28;96427.41;;;4.73;100.00
20624;BME280;10471;42.736;23.346;2022-12-18T02:34:00;96439.44;;;4.74;100.00
20624;BME280;10471;42.736;23.346;2022-12-18T02:36:28;96449.91;;;4.67;100.00
20624;BME280;10471;42.736;23.346;2022-12-18T02:38:55;96441.75;;;4.64;100.00
20624;BME280;10471;42.736;23.346;2022-12-18T02:41:25;96437.53;;;4.63;100.00
20624;BME280;10471;42.736;23.346;2022-12-18T02:43:57;96441.13;;;4.62;100.00
20624;BME280;10471;42.736;23.346;2022-12-18T02:46:30;96439.53;;;4.61;100.00
20624;BME280;10471;42.736;23.346;2022-12-18T02:49:04;96439.97;;;4.58;100.00
20624;BME280;10471;42.736;23.346;2022-12-18T03:03:35;96443.31;;;4.41;100.00
20624;BME280;10471;42.736;23.346;2022-12-18T03:06:06;96448.88;;;4.44;100.00
20624;BME280;10471;42.736;23.346;2022-12-18T03:08:39;96440.47;;;4.42;100.00
20624;BME280;10471;42.736;23.346;2022-12-18T03:11:09;96458.13;;;4.40;100.00
20624;BME280;10471;42.736;23.346;2022-12-18T03:13:39;96447.31;;;4.37;100.00
20624;BME280;10471;42.736;23.346;2022-12-18T03:16:10;96448.53;;;4.34;100.00
20624;BME280;10471;42.736;23.346;2022-12-18T03:18:41;96447.38;;;4.30;100.00
20624;BME280;10471;42.736;23.346;2022-12-18T03:21:10;96455.19;;;4.30;100.00
20624;BME280;10471;42.736;23.346;2022-12-18T03:23:41;96462.22;;;4.30;100.00
20624;BME280;10471;42.736;23.346;2022-12-18T03:26:10;96465.03;;;4.28;100.00
20624;BME280;10471;42.736;23.346;2022-12-18T03:28:40;96459.00;;;4.28;100.00
20624;BME280;10471;42.736;23.346;2022-12-18T03:31:09;96476.66;;;4.32;100.00
20624;BME280;10471;42.736;23.346;2022-12-18T03:33:52;96486.06;;;4.33;100.00
20624;BME280;10471;42.736;23.346;2022-12-18T03:36:17;96488.66;;;4.33;100.00
20624;BME280;10471;42.736;23.346;2022-12-18T03:38:43;96490.28;;;4.34;100.00
20624;BME280;10471;42.736;23.346;2022-12-18T03:41:29;96496.66;;;4.38;100.00
20624;BME280;10471;42.736;23.346;2022-12-18T03:46:43;96498.91;;;4.35;100.00
20624;BME280;10471;42.736;23.346;2022-12-18T03:49:50;96506.16;;;4.33;100.00
20624;BME280;10471;42.736;23.346;2022-12-18T03:52:29;96521.84;;;4.26;100.00
20624;BME280;10471;42.736;23.346;2022-12-18T03:54:58;96512.00;;;4.22;100.00
20624;BME280;10471;42.736;23.346;2022-12-18T03:57:26;96525.25;;;4.20;100.00
20624;BME280;10471;42.736;23.346;2022-12-18T03:59:57;96527.25;;;4.18;100.00
20624;BME280;10471;42.736;23.346;2022-12-18T04:02:25;96523.66;;;4.19;100.00
20624;BME280;10471;42.736;23.346;2022-12-18T04:04:53;96526.88;;;4.21;100.00
20624;BME280;10471;42.736;23.346;2022-12-18T04:07:22;96525.06;;;4.22;100.00
20624;BME280;10471;42.736;23.346;2022-12-18T04:09:48;96529.31;;;4.16;100.00
20624;BME280;10471;42.736;23.346;2022-12-18T04:12:15;96536.50;;;4.14;100.00
20624;BME280;10471;42.736;23.346;2022-12-18T04:14:40;96541.72;;;4.14;100.00
20624;BME280;10471;42.736;23.346;2022-12-18T04:17:06;96544.56;;;4.13;100.00
20624;BME280;10471;42.736;23.346;2022-12-18T04:19:31;96547.38;;;4.11;100.00
20624;BME280;10471;42.736;23.346;2022-12-18T04:21:57;96545.97;;;4.09;100.00
20624;BME280;10471;42.736;23.346;2022-12-18T04:24:22;96558.81;;;4.10;100.00
20624;BME280;10471;42.736;23.346;2022-12-18T04:26:47;96550.59;;;4.07;100.00
20624;BME280;10471;42.736;23.346;2022-12-18T04:29:13;96562.84;;;4.06;100.00
20624;BME280;10471;42.736;23.346;2022-12-18T04:31:38;96571.84;;;4.10;100.00
20624;BME280;10471;42.736;23.346;2022-12-18T04:34:04;96582.66;;;4.07;100.00
20624;BME280;10471;42.736;23.346;2022-12-18T04:36:29;96574.25;;;4.12;100.00
20624;BME280;10471;42.736;23.346;2022-12-18T04:38:55;96579.66;;;4.10;100.00
20624;BME280;10471;42.736;23.346;2022-12-18T04:41:20;96582.66;;;4.07;100.00
20624;BME280;10471;42.736;23.346;2022-12-18T04:43:45;96586.31;;;4.06;100.00
20624;BME280;10471;42.736;23.346;2022-12-18T04:46:11;96591.91;;;4.03;100.00
20624;BME280;10471;42.736;23.346;2022-12-18T04:48:37;96591.13;;;3.96;100.00
20624;BME280;10471;42.736;23.346;2022-12-18T04:51:04;96592.72;;;3.97;100.00
20624;BME280;10471;42.736;23.346;2022-12-18T04:53:29;96595.13;;;3.92;100.00
20624;BME280;10471;42.736;23.346;2022-12-18T04:56:10;96608.38;;;3.91;100.00
20624;BME280;10471;42.736;23.346;2022-12-18T04:58:36;96611.78;;;3.91;100.00
20624;BME280;10471;42.736;23.346;2022-12-18T05:01:02;96611.97;;;3.90;100.00
20624;BME280;10471;42.736;23.346;2022-12-18T05:03:28;96609.78;;;3.93;100.00
20624;BME280;10471;42.736;23.346;2022-12-18T05:05:54;96621.63;;;3.89;100.00
20624;BME280;10471;42.736;23.346;2022-12-18T05:08:19;96621.22;;;3.92;100.00
20624;BME280;10471;42.736;23.346;2022-12-18T05:10:44;96628.44;;;3.90;100.00
20624;BME280;10471;42.736;23.346;2022-12-18T05:13:10;96629.25;;;3.91;100.00
20624;BME280;10471;42.736;23.346;2022-12-18T05:15:35;96628.63;;;3.95;100.00
20624;BME280;10471;42.736;23.346;2022-12-18T05:18:02;96643.06;;;3.91;100.00
20624;BME280;10471;42.736;23.346;2022-12-18T05:20:28;96639.66;;;3.97;100.00
20624;BME280;10471;42.736;23.346;2022-12-18T05:22:53;96641.69;;;3.95;100.00
20624;BME280;10471;42.736;23.346;2022-12-18T05:25:19;96652.09;;;3.95;100.00
20624;BME280;10471;42.736;23.346;2022-12-18T05:27:45;96654.91;;;3.94;100.00
20624;BME280;10471;42.736;23.346;2022-12-18T05:30:10;96660.91;;;3.94;100.00
20624;BME280;10471;42.736;23.346;2022-12-18T05:32:36;96669.13;;;3.91;100.00
20624;BME280;10471;42.736;23.346;2022-12-18T05:35:02;96659.31;;;3.93;100.00
20624;BME280;10471;42.736;23.346;2022-12-18T05:37:28;96664.94;;;3.90;100.00
20624;BME280;10471;42.736;23.346;2022-12-18T05:39:53;96672.16;;;3.88;100.00
20624;BME280;10471;42.736;23.346;2022-12-18T05:42:18;96673.34;;;3.92;100.00
20624;BME280;10471;42.736;23.346;2022-12-18T05:44:44;96678.16;;;3.95;100.00
20624;BME280;10471;42.736;23.346;2022-12-18T05:47:09;96683.78;;;3.92;100.00
20624;BME280;10471;42.736;23.346;2022-12-18T05:49:35;96690.41;;;3.88;100.00
20624;BME280;10471;42.736;23.346;2022-12-18T05:52:00;96689.78;;;3.87;100.00
20624;BME280;10471;42.736;23.346;2022-12-18T05:54:29;96693.59;;;3.84;100.00
20624;BME280;10471;42.736;23.346;2022-12-18T05:56:54;96690.19;;;3.84;100.00
20624;BME280;10471;42.736;23.346;2022-12-18T05:59:20;96703.03;;;3.79;100.00
20624;BME280;10471;42.736;23.346;2022-12-18T06:01:46;96686.19;;;3.75;100.00
20624;BME280;10471;42.736;23.346;2022-12-18T06:04:11;96692.63;;;3.72;100.00
20624;BME280;10471;42.736;23.346;2022-12-18T06:06:36;96709.44;;;3.70;100.00
20624;BME280;10471;42.736;23.346;2022-12-18T06:09:03;96708.84;;;3.68;100.00
20624;BME280;10471;42.736;23.346;2022-12-18T06:11:34;96707.44;;;3.72;100.00
20624;BME280;10471;42.736;23.346;2022-12-18T06:13:59;96717.06;;;3.71;100.00
20624;BME280;10471;42.736;23.346;2022-12-18T06:16:26;96719.25;;;3.68;100.00
20624;BME280;10471;42.736;23.346;2022-12-18T06:18:51;96715.44;;;3.64;100.00
20624;BME280;10471;42.736;23.346;2022-12-18T06:21:17;96724.69;;;3.73;100.00
20624;BME280;10471;42.736;23.346;2022-12-18T06:23:42;96713.44;;;3.66;100.00
20624;BME280;10471;42.736;23.346;2022-12-18T06:26:10;96722.66;;;3.68;100.00
20624;BME280;10471;42.736;23.346;2022-12-18T06:28:36;96737.50;;;3.68;100.00
20624;BME280;10471;42.736;23.346;2022-12-18T06:31:03;96735.88;;;3.67;100.00
20624;BME280;10471;42.736;23.346;2022-12-18T06:33:29;96736.31;;;3.64;100.00
20624;BME280;10471;42.736;23.346;2022-12-18T06:36:03;96738.91;;;3.64;100.00
20624;BME280;10471;42.736;23.346;2022-12-18T06:38:31;96746.31;;;3.67;100.00
20624;BME280;10471;42.736;23.346;2022-12-18T06:40:56;96741.91;;;3.67;100.00
20624;BME280;10471;42.736;23.346;2022-12-18T06:43:21;96738.28;;;3.62;100.00
20624;BME280;10471;42.736;23.346;2022-12-18T06:45:47;96752.72;;;3.58;100.00
20624;BME280;10471;42.736;23.346;2022-12-18T06:48:20;96751.72;;;3.59;100.00
20624;BME280;10471;42.736;23.346;2022-12-18T06:50:46;96746.31;;;3.60;100.00
20624;BME280;10471;42.736;23.346;2022-12-18T06:53:12;96762.34;;;3.64;100.00
20624;BME280;10471;42.736;23.346;2022-12-18T06:55:37;96763.97;;;3.65;100.00
20624;BME280;10471;42.736;23.346;2022-12-18T06:58:02;96764.13;;;3.63;100.00
20624;BME280;10471;42.736;23.346;2022-12-18T07:00:28;96773.78;;;3.63;100.00
20624;BME280;10471;42.736;23.346;2022-12-18T07:02:53;96764.75;;;3.65;100.00
20624;BME280;10471;42.736;23.346;2022-12-18T07:05:18;96768.16;;;3.66;100.00
20624;BME280;10471;42.736;23.346;2022-12-18T07:07:44;96774.41;;;3.65;100.00
20624;BME280;10471;42.736;23.346;2022-12-18T07:10:09;96771.38;;;3.61;100.00
20624;BME280;10471;42.736;23.346;2022-12-18T07:12:35;96770.75;;;3.66;100.00
20624;BME280;10471;42.736;23.346;2022-12-18T07:15:00;96785.81;;;3.64;100.00
20624;BME280;10471;42.736;23.346;2022-12-18T07:17:26;96782.22;;;3.65;100.00
20624;BME280;10471;42.736;23.346;2022-12-18T07:19:51;96772.38;;;3.67;100.00
20624;BME280;10471;42.736;23.346;2022-12-18T07:22:17;96778.56;;;3.66;100.00
20624;BME280;10471;42.736;23.346;2022-12-18T07:24:42;96781.19;;;3.66;100.00
20624;BME280;10471;42.736;23.346;2022-12-18T07:27:08;96784.81;;;3.65;100.00
20624;BME280;10471;42.736;23.346;2022-12-18T07:29:33;96776.38;;;3.63;100.00
20624;BME280;10471;42.736;23.346;2022-12-18T07:31:58;96789.22;;;3.64;100.00
20624;BME280;10471;42.736;23.346;2022-12-18T07:34:24;96790.41;;;3.62;100.00
20624;BME280;10471;42.736;23.346;2022-12-18T07:36:49;96786.38;;;3.59;100.00
20624;BME280;10471;42.736;23.346;2022-12-18T07:39:14;96797.63;;;3.60;100.00
20624;BME280;10471;42.736;23.346;2022-12-18T07:41:40;96805.03;;;3.63;100.00
20624;BME280;10471;42.736;23.346;2022-12-18T07:44:12;96795.63;;;3.62;100.00
20624;BME280;10471;42.736;23.346;2022-12-18T07:46:37;96792.41;;;3.60;100.00
20624;BME280;10471;42.736;23.346;2022-12-18T07:49:03;96799.22;;;3.61;100.00
20624;BME280;10471;42.736;23.346;2022-12-18T07:51:29;96794.41;;;3.64;100.00
20624;BME280;10471;42.736;23.346;2022-12-18T07:53:55;96791.59;;;3.59;100.00
20624;BME280;10471;42.736;23.346;2022-12-18T07:56:20;96802.03;;;3.59;100.00
20624;BME280;10471;42.736;23.346;2022-12-18T07:58:46;96810.84;;;3.58;100.00
20624;BME280;10471;42.736;23.346;2022-12-18T08:01:12;96808.06;;;3.60;100.00
20624;BME280;10471;42.736;23.346;2022-12-18T08:03:39;96818.06;;;3.56;100.00
20624;BME280;10471;42.736;23.346;2022-12-18T08:06:07;96823.06;;;3.58;100.00
20624;BME280;10471;42.736;23.346;2022-12-18T08:08:34;96823.06;;;3.58;100.00
20624;BME280;10471;42.736;23.346;2022-12-18T08:11:00;96820.47;;;3.58;100.00
20624;BME280;10471;42.736;23.346;2022-12-18T08:13:26;96817.66;;;3.66;100.00
20624;BME280;10471;42.736;23.346;2022-12-18T08:16:01;96831.31;;;3.68;100.00
20624;BME280;10471;42.736;23.346;2022-12-18T08:18:27;96841.13;;;3.66;100.00
20624;BME280;10471;42.736;23.346;2022-12-18T08:20:54;96833.72;;;3.63;100.00
20624;BME280;10471;42.736;23.346;2022-12-18T08:23:19;96839.75;;;3.70;100.00
20624;BME280;10471;42.736;23.346;2022-12-18T08:25:44;96856.19;;;3.77;100.00
20624;BME280;10471;42.736;23.346;2022-12-18T08:28:10;96850.41;;;3.81;100.00
20624;BME280;10471;42.736;23.346;2022-12-18T08:30:36;96858.00;;;3.83;100.00
20624;BME280;10471;42.736;23.346;2022-12-18T08:33:02;96858.63;;;3.85;100.00
20624;BME280;10471;42.736;23.346;2022-12-18T08:35:28;96863.84;;;3.85;100.00
20624;BME280;10471;42.736;23.346;2022-12-18T08:37:53;96860.25;;;3.86;100.00
20624;BME280;10471;42.736;23.346;2022-12-18T08:40:18;96862.22;;;3.84;100.00
20624;BME280;10471;42.736;23.346;2022-12-18T08:42:44;96857.22;;;3.88;100.00
20624;BME280;10471;42.736;23.346;2022-12-18T08:45:27;96873.06;;;3.87;100.00
20624;BME280;10471;42.736;23.346;2022-12-18T08:47:53;96863.06;;;3.90;100.00
20624;BME280;10471;42.736;23.346;2022-12-18T08:50:19;96869.88;;;3.91;100.00
20624;BME280;10471;42.736;23.346;2022-12-18T08:52:45;96878.88;;;3.83;100.00
20624;BME280;10471;42.736;23.346;2022-12-18T08:55:10;96870.47;;;3.81;100.00
20624;BME280;10471;42.736;23.346;2022-12-18T08:57:35;96877.03;;;3.77;100.00
20624;BME280;10471;42.736;23.346;2022-12-18T09:00:01;96863.84;;;3.78;100.00
20624;BME280;10471;42.736;23.346;2022-12-18T09:02:27;96863.44;;;3.81;100.00
20624;BME280;10471;42.736;23.346;2022-12-18T09:04:52;96857.81;;;3.84;100.00
20624;BME280;10471;42.736;23.346;2022-12-18T09:07:17;96862.63;;;3.81;100.00
20624;BME280;10471;42.736;23.346;2022-12-18T09:09:43;96861.81;;;3.80;100.00
20624;BME280;10471;42.736;23.346;2022-12-18T09:12:08;96866.25;;;3.86;100.00
20624;BME280;10471;42.736;23.346;2022-12-18T09:14:34;96868.28;;;3.90;100.00
20624;BME280;10471;42.736;23.346;2022-12-18T09:16:59;96864.88;;;3.96;100.00
20624;BME280;10471;42.736;23.346;2022-12-18T09:19:24;96862.66;;;4.00;100.00
20624;BME280;10471;42.736;23.346;2022-12-18T09:21:50;96873.09;;;4.00;100.00
20624;BME280;10471;42.736;23.346;2022-12-18T09:24:16;96870.50;;;4.00;100.00
20624;BME280;10471;42.736;23.346;2022-12-18T09:26:42;96871.94;;;4.09;100.00
20624;BME280;10471;42.736;23.346;2022-12-18T09:29:07;96870.31;;;4.14;100.00
20624;BME280;10471;42.736;23.346;2022-12-18T09:31:33;96858.06;;;4.15;100.00
20624;BME280;10471;42.736;23.346;2022-12-18T09:33:58;96861.72;;;4.20;100.00
20624;BME280;10471;42.736;23.346;2022-12-18T09:36:24;96863.69;;;4.18;100.00
20624;BME280;10471;42.736;23.346;2022-12-18T09:38:50;96858.28;;;4.13;100.00
20624;BME280;10471;42.736;23.346;2022-12-18T09:49:47;96865.13;;;4.27;100.00
20624;BME280;10471;42.736;23.346;2022-12-18T09:52:24;96871.75;;;4.36;100.00
20624;BME280;10471;42.736;23.346;2022-12-18T09:57:24;96878.97;;;4.34;100.00
20624;BME280;10471;42.736;23.346;2022-12-18T09:59:57;96868.75;;;4.26;100.00
20624;BME280;10471;42.736;23.346;2022-12-18T10:02:25;96882.00;;;4.38;100.00
20624;BME280;10471;42.736;23.346;2022-12-18T10:05:12;96878.78;;;4.36;100.00
20624;BME280;10471;42.736;23.346;2022-12-18T10:08:05;96868.94;;;4.31;100.00
20624;BME280;10471;42.736;23.346;2022-12-18T10:10:45;96867.53;;;4.35;100.00
20624;BME280;10471;42.736;23.346;2022-12-18T10:13:20;96871.75;;;4.36;100.00
20624;BME280;10471;42.736;23.346;2022-12-18T10:15:59;96870.56;;;4.45;100.00
20624;BME280;10471;42.736;23.346;2022-12-18T10:18:37;96870.38;;;4.53;100.00
20624;BME280;10471;42.736;23.346;2022-12-18T10:21:15;96865.75;;;4.42;100.00
20624;BME280;10471;42.736;23.346;2022-12-18T10:26:22;96871.59;;;4.51;100.00
20624;BME280;10471;42.736;23.346;2022-12-18T10:28:48;96872.56;;;4.56;100.00
20624;BME280;10471;42.736;23.346;2022-12-18T10:31:17;96874.78;;;4.59;100.00
20624;BME280;10471;42.736;23.346;2022-12-18T10:33:43;96871.56;;;4.57;100.00
20624;BME280;10471;42.736;23.346;2022-12-18T10:36:08;96863.72;;;4.70;100.00
20624;BME280;10471;42.736;23.346;2022-12-18T10:38:34;96870.75;;;4.69;100.00
20624;BME280;10471;42.736;23.346;2022-12-18T10:41:02;96862.31;;;4.67;100.00
20624;BME280;10471;42.736;23.346;2022-12-18T10:43:28;96866.97;;;4.65;100.00
20624;BME280;10471;42.736;23.346;2022-12-18T10:46:16;96865.13;;;4.66;100.00
20624;BME280;10471;42.736;23.346;2022-12-18T10:51:26;96867.94;;;4.71;100.00
20624;BME280;10471;42.736;23.346;2022-12-18T10:54:02;96863.13;;;4.68;100.00
20624;BME280;10471;42.736;23.346;2022-12-18T10:56:30;96863.91;;;4.75;100.00
20624;BME280;10471;42.736;23.346;2022-12-18T10:59:08;96859.94;;;4.79;100.00
20624;BME280;10471;42.736;23.346;2022-12-18T11:04:17;96851.47;;;4.90;100.00
20624;BME280;10471;42.736;23.346;2022-12-18T11:07:00;96850.63;;;4.96;100.00
20624;BME280;10471;42.736;23.346;2022-12-18T11:09:31;96855.47;;;4.99;100.00
20624;BME280;10471;42.736;23.346;2022-12-18T11:12:02;96869.16;;;4.88;100.00
20624;BME280;10471;42.736;23.346;2022-12-18T11:14:45;96866.53;;;4.75;100.00
20624;BME280;10471;42.736;23.346;2022-12-18T11:17:34;96864.72;;;4.88;100.00
20624;BME280;10471;42.736;23.346;2022-12-18T11:20:04;96871.16;;;4.99;100.00
20624;BME280;10471;42.736;23.346;2022-12-18T11:22:33;96858.28;;;4.91;100.00
20624;BME280;10471;42.736;23.346;2022-12-18T11:27:38;96869.16;;;4.88;100.00
20624;BME280;10471;42.736;23.346;2022-12-18T11:30:35;96870.72;;;5.02;100.00
20624;BME280;10471;42.736;23.346;2022-12-18T11:33:13;96870.53;;;4.97;100.00
20624;BME280;10471;42.736;23.346;2022-12-18T11:35:51;96862.91;;;4.95;100.00
20624;BME280;10471;42.736;23.346;2022-12-18T11:38:21;96871.53;;;5.02;100.00
20624;BME280;10471;42.736;23.346;2022-12-18T11:41:04;96858.66;;;5.01;100.00
20624;BME280;10471;42.736;23.346;2022-12-18T11:43:45;96863.50;;;4.91;100.00
20624;BME280;10471;42.736;23.346;2022-12-18T11:46:32;96866.31;;;4.96;100.00
20624;BME280;10471;42.736;23.346;2022-12-18T11:49:01;96867.34;;;4.95;100.00
20624;BME280;10471;42.736;23.346;2022-12-18T11:51:43;96870.34;;;4.92;100.00
20624;BME280;10471;42.736;23.346;2022-12-18T11:54:14;96867.91;;;4.97;100.00
20624;BME280;10471;42.736;23.346;2022-12-18T11:56:51;96869.13;;;5.01;100.00
20624;BME280;10471;42.736;23.346;2022-12-18T11:59:30;96867.13;;;5.03;100.00
20624;BME280;10471;42.736;23.346;2022-12-18T12:26:07;96875.91;;;5.27;100.00
20624;BME280;10471;42.736;23.346;2022-12-18T12:31:24;96867.84;;;5.29;100.00
20624;BME280;10471;42.736;23.346;2022-12-18T12:34:08;96873.69;;;5.24;100.00
20624;BME280;10471;42.736;23.346;2022-12-18T12:39:28;96884.19;;;5.18;100.00
20624;BME280;10471;42.736;23.346;2022-12-18T12:41:56;96880.34;;;5.20;100.00
20624;BME280;10471;42.736;23.346;2022-12-18T12:44:45;96869.25;;;5.25;100.00
20624;BME280;10471;42.736;23.346;2022-12-18T12:47:20;96863.06;;;5.19;100.00
20624;BME280;10471;42.736;23.346;2022-12-18T12:49:47;96875.31;;;5.19;100.00
20624;BME280;10471;42.736;23.346;2022-12-18T12:52:17;96868.25;;;5.26;100.00
20624;BME280;10471;42.736;23.346;2022-12-18T12:54:48;96869.06;;;5.26;100.00
20624;BME280;10471;42.736;23.346;2022-12-18T12:57:31;96869.47;;;5.23;100.00
20624;BME280;10471;42.736;23.346;2022-12-18T13:00:18;96878.38;;;5.10;100.00
20624;BME280;10471;42.736;23.346;2022-12-18T13:05:49;96883.94;;;5.26;100.00
20624;BME280;10471;42.736;23.346;2022-12-18T13:08:28;96885.97;;;5.18;100.00
20624;BME280;10471;42.736;23.346;2022-12-18T13:10:55;96888.63;;;5.05;100.00
20624;BME280;10471;42.736;23.346;2022-12-18T13:13:53;96888.00;;;5.03;100.00
20624;BME280;10471;42.736;23.346;2022-12-18T13:16:21;96896.63;;;5.03;100.00
20624;BME280;10471;42.736;23.346;2022-12-18T13:18:52;96904.09;;;5.00;100.00
20624;BME280;10471;42.736;23.346;2022-12-18T13:21:30;96908.09;;;4.96;100.00
20624;BME280;10471;42.736;23.346;2022-12-18T13:24:35;96912.53;;;4.95;100.00
20624;BME280;10471;42.736;23.346;2022-12-18T13:26:59;96902.88;;;4.96;100.00
20624;BME280;10471;42.736;23.346;2022-12-18T13:29:55;96917.53;;;4.97;100.00
20624;BME280;10471;42.736;23.346;2022-12-18T13:32:25;96910.50;;;4.91;100.00
20624;BME280;10471;42.736;23.346;2022-12-18T13:35:52;96908.09;;;4.96;100.00
20624;BME280;10471;42.736;23.346;2022-12-18T13:37:57;96908.94;;;4.90;100.00
20624;BME280;10471;42.736;23.346;2022-12-18T13:43:26;96917.97;;;4.94;100.00
20624;BME280;10471;42.736;23.346;2022-12-18T13:48:25;96924.78;;;4.95;100.00
20624;BME280;10471;42.736;23.346;2022-12-18T13:51:03;96933.44;;;4.89;100.00
20624;BME280;10471;42.736;23.346;2022-12-18T13:53:33;96932.00;;;4.80;100.00
20624;BME280;10471;42.736;23.346;2022-12-18T13:56:00;96946.88;;;4.79;100.00
20624;BME280;10471;42.736;23.346;2022-12-18T13:58:25;96950.88;;;4.82;100.00
20624;BME280;10471;42.736;23.346;2022-12-18T14:00:51;96943.84;;;4.76;100.00
20624;BME280;10471;42.736;23.346;2022-12-18T14:03:27;96944.25;;;4.79;100.00
20624;BME280;10471;42.736;23.346;2022-12-18T14:05:56;96942.66;;;4.78;100.00
20624;BME280;10471;42.736;23.346;2022-12-18T14:08:23;96954.28;;;4.76;100.00
20624;BME280;10471;42.736;23.346;2022-12-18T14:10:51;96956.69;;;4.71;100.00
20624;BME280;10471;42.736;23.346;2022-12-18T14:15:50;96947.88;;;4.65;100.00
20624;BME280;10471;42.736;23.346;2022-12-18T14:18:26;96953.88;;;4.66;100.00
20624;BME280;10471;42.736;23.346;2022-12-18T14:20:57;96956.28;;;4.61;100.00
20624;BME280;10471;42.736;23.346;2022-12-18T14:23:38;96951.91;;;4.68;100.00
20624;BME280;10471;42.736;23.346;2022-12-18T14:26:21;96955.28;;;4.62;100.00